Time,TemperatureF,DewpointF,PressureIn,WindDirection,WindDirectionDegrees,WindSpeedMPH,WindSpeedGustMPH,Humidity,HourlyPrecipIn,Conditions,Clouds,dailyrainin,SoftwareType,DateUTC
2013-01-08 00:00:00,63.4,59.8,30.15,North,0,0.0,0.0,88,0.00,,,0.26,WUHU216HW,2013-01-08 05:00:00,
2013-01-08 00:01:00,63.4,59.8,30.15,North,0,0.0,0.0,88,0.00,,,0.00,WUHU216HW,2013-01-08 05:01:00,
2013-01-08 00:03:00,63.4,59.8,30.15,North,0,0.0,0.0,88,0.00,,,0.00,WUHU216HW,2013-01-08 05:03:00,
2013-01-08 00:08:00,63.4,59.8,30.15,North,0,0.0,0.0,88,0.00,,,0.00,WUHU216HW,2013-01-08 05:08:00,
2013-01-08 00:13:00,63.2,59.6,30.15,North,0,0.0,0.0,88,0.00,,,0.00,WUHU216HW,2013-01-08 05:13:00,
2013-01-08 00:18:00,63.2,59.6,30.15,North,0,0.0,0.0,88,0.00,,,0.00,WUHU216HW,2013-01-08 05:18:00,
2013-01-08 00:23:00,63.2,59.6,30.14,North,0,0.0,0.0,88,0.00,,,0.00,WUHU216HW,2013-01-08 05:23:00,
2013-01-08 00:28:00,63.2,59.6,30.14,North,0,0.0,0.0,88,0.00,,,0.00,WUHU216HW,2013-01-08 05:28:00,
2013-01-08 00:33:00,63.2,59.6,30.14,North,0,0.0,0.0,88,0.00,,,0.00,WUHU216HW,2013-01-08 05:33:00,
2013-01-08 00:38:00,63.0,59.4,30.14,North,0,0.0,0.0,88,0.00,,,0.00,WUHU216HW,2013-01-08 05:38:00,
2013-01-08 00:43:00,63.0,59.4,30.14,North,0,0.0,0.0,88,0.00,,,0.00,WUHU216HW,2013-01-08 05:43:00,
2013-01-08 00:48:00,63.0,59.4,30.14,North,0,0.0,0.0,88,0.00,,,0.00,WUHU216HW,2013-01-08 05:48:00,
2013-01-08 00:53:00,63.0,59.4,30.14,North,0,0.0,0.0,88,0.00,,,0.00,WUHU216HW,2013-01-08 05:53:00,
2013-01-08 00:58:00,63.0,59.4,30.14,North,0,0.0,0.0,88,0.00,,,0.00,WUHU216HW,2013-01-08 05:58:00,
2013-01-08 01:03:00,63.0,59.4,30.14,North,0,0.0,0.0,88,0.00,,,0.00,WUHU216HW,2013-01-08 06:03:00,
2013-01-08 01:08:00,63.0,59.4,30.14,North,0,0.0,0.0,88,0.00,,,0.00,WUHU216HW,2013-01-08 06:08:00,
2013-01-08 01:13:00,63.0,59.4,30.14,North,0,0.0,0.0,88,0.00,,,0.00,WUHU216HW,2013-01-08 06:13:00,
2013-01-08 01:18:00,63.0,59.8,30.14,North,0,0.0,0.0,89,0.00,,,0.00,WUHU216HW,2013-01-08 06:18:00,
2013-01-08 01:23:00,63.0,59.8,30.14,North,0,0.0,0.0,89,0.00,,,0.00,WUHU216HW,2013-01-08 06:23:00,
2013-01-08 01:28:00,63.0,59.8,30.13,North,0,0.0,0.0,89,0.00,,,0.00,WUHU216HW,2013-01-08 06:28:00,
2013-01-08 01:33:00,63.0,59.8,30.13,North,0,0.0,0.0,89,0.00,,,0.00,WUHU216HW,2013-01-08 06:33:00,
2013-01-08 01:38:00,63.0,59.8,30.13,North,0,0.0,0.0,89,0.00,,,0.00,WUHU216HW,2013-01-08 06:38:00,
2013-01-08 01:43:00,63.0,59.8,30.13,North,0,0.0,0.0,89,0.00,,,0.00,WUHU216HW,2013-01-08 06:43:00,
2013-01-08 01:48:00,63.0,59.8,30.13,North,0,0.0,0.0,89,0.00,,,0.00,WUHU216HW,2013-01-08 06:48:00,
2013-01-08 01:53:00,63.0,59.8,30.13,North,0,0.0,0.0,89,0.00,,,0.00,WUHU216HW,2013-01-08 06:53:00,
2013-01-08 01:58:00,63.2,59.9,30.13,North,0,0.0,0.0,89,0.00,,,0.00,WUHU216HW,2013-01-08 06:58:00,
2013-01-08 02:03:00,63.2,59.9,30.13,North,0,0.0,0.0,89,0.00,,,0.00,WUHU216HW,2013-01-08 07:03:00,
2013-01-08 02:08:00,63.2,59.9,30.13,North,0,0.0,0.0,89,0.00,,,0.00,WUHU216HW,2013-01-08 07:08:00,
2013-01-08 02:13:00,63.2,59.9,30.13,North,0,0.0,0.0,89,0.00,,,0.00,WUHU216HW,2013-01-08 07:13:00,
2013-01-08 02:18:00,63.2,59.9,30.13,North,0,0.0,0.0,89,0.00,,,0.00,WUHU216HW,2013-01-08 07:18:00,
2013-01-08 02:23:00,63.2,59.9,30.13,North,0,0.0,0.0,89,0.00,,,0.00,WUHU216HW,2013-01-08 07:23:00,
2013-01-08 02:28:00,63.2,60.3,30.13,North,0,0.0,0.0,90,0.00,,,0.00,WUHU216HW,2013-01-08 07:28:00,
2013-01-08 02:33:00,63.4,60.5,30.13,North,0,0.0,0.0,90,0.00,,,0.00,WUHU216HW,2013-01-08 07:33:00,
2013-01-08 02:38:00,63.4,60.5,30.12,North,0,0.0,0.0,90,0.00,,,0.00,WUHU216HW,2013-01-08 07:38:00,
2013-01-08 02:43:00,63.4,60.5,30.12,North,0,0.0,0.0,90,0.00,,,0.00,WUHU216HW,2013-01-08 07:43:00,
2013-01-08 02:48:00,63.4,60.5,30.12,North,0,0.0,0.0,90,0.00,,,0.00,WUHU216HW,2013-01-08 07:48:00,
2013-01-08 02:53:00,63.4,60.5,30.12,North,0,0.0,0.0,90,0.00,,,0.00,WUHU216HW,2013-01-08 07:53:00,
2013-01-08 02:58:00,63.4,60.5,30.12,North,0,0.0,0.0,90,0.00,,,0.00,WUHU216HW,2013-01-08 07:58:00,
2013-01-08 03:03:00,63.4,60.5,30.12,North,0,0.0,0.0,90,0.00,,,0.00,WUHU216HW,2013-01-08 08:03:00,
2013-01-08 03:08:00,63.4,60.5,30.12,North,0,0.0,0.0,90,0.00,,,0.00,WUHU216HW,2013-01-08 08:08:00,
2013-01-08 03:13:00,63.4,60.5,30.12,North,0,0.0,0.0,90,0.00,,,0.00,WUHU216HW,2013-01-08 08:13:00,
2013-01-08 03:18:00,63.4,60.5,30.12,North,0,0.0,0.0,90,0.00,,,0.00,WUHU216HW,2013-01-08 08:18:00,
2013-01-08 03:23:00,63.4,60.5,30.12,North,0,0.0,0.0,90,0.00,,,0.00,WUHU216HW,2013-01-08 08:23:00,
2013-01-08 03:28:00,63.4,60.5,30.12,North,0,0.0,0.0,90,0.00,,,0.00,WUHU216HW,2013-01-08 08:28:00,
2013-01-08 03:33:00,63.4,60.5,30.12,North,0,0.0,0.0,90,0.00,,,0.00,WUHU216HW,2013-01-08 08:33:00,
2013-01-08 03:38:00,63.5,60.7,30.12,North,0,0.0,0.0,90,0.00,,,0.00,WUHU216HW,2013-01-08 08:38:00,
2013-01-08 03:43:00,63.5,60.7,30.11,North,0,0.0,0.0,90,0.00,,,0.00,WUHU216HW,2013-01-08 08:43:00,
2013-01-08 03:48:00,63.5,60.7,30.11,North,0,0.0,0.0,90,0.00,,,0.00,WUHU216HW,2013-01-08 08:48:00,
2013-01-08 03:53:00,63.5,60.7,30.12,North,0,0.0,0.0,90,0.00,,,0.00,WUHU216HW,2013-01-08 08:53:00,
2013-01-08 03:58:00,63.5,60.7,30.11,North,0,0.0,0.0,90,0.00,,,0.00,WUHU216HW,2013-01-08 08:58:00,
2013-01-08 04:03:00,63.5,60.7,30.12,North,0,0.0,0.0,90,0.00,,,0.00,WUHU216HW,2013-01-08 09:03:00,
2013-01-08 04:08:00,63.5,60.7,30.11,North,0,0.0,0.0,90,0.00,,,0.00,WUHU216HW,2013-01-08 09:08:00,
2013-01-08 04:13:00,63.5,60.7,30.11,North,0,0.0,0.0,90,0.00,,,0.00,WUHU216HW,2013-01-08 09:13:00,
2013-01-08 04:18:00,63.5,60.7,30.11,North,0,0.0,0.0,90,0.00,,,0.00,WUHU216HW,2013-01-08 09:18:00,
2013-01-08 04:23:00,63.5,60.7,30.11,North,0,0.0,0.0,90,0.00,,,0.00,WUHU216HW,2013-01-08 09:23:00,
2013-01-08 04:28:00,63.5,60.7,30.11,North,0,0.0,0.0,90,0.00,,,0.00,WUHU216HW,2013-01-08 09:28:00,
2013-01-08 04:33:00,63.5,60.7,30.11,North,0,0.0,0.0,90,0.00,,,0.00,WUHU216HW,2013-01-08 09:33:00,
2013-01-08 04:38:00,63.5,60.7,30.11,North,0,0.0,0.0,90,0.00,,,0.00,WUHU216HW,2013-01-08 09:38:00,
2013-01-08 04:43:00,63.5,60.7,30.11,North,0,0.0,0.0,90,0.00,,,0.00,WUHU216HW,2013-01-08 09:43:00,
2013-01-08 04:48:00,63.5,60.7,30.11,North,0,0.0,0.0,90,0.00,,,0.00,WUHU216HW,2013-01-08 09:48:00,
2013-01-08 04:53:00,63.5,60.7,30.11,North,0,0.0,0.0,90,0.00,,,0.00,WUHU216HW,2013-01-08 09:53:00,
2013-01-08 04:58:00,63.5,60.7,30.11,North,0,0.0,0.0,90,0.00,,,0.00,WUHU216HW,2013-01-08 09:58:00,
2013-01-08 05:03:00,63.5,60.7,30.11,North,0,0.0,0.0,90,0.00,,,0.00,WUHU216HW,2013-01-08 10:03:00,
2013-01-08 05:08:00,63.5,60.7,30.11,North,0,0.0,0.0,90,0.00,,,0.00,WUHU216HW,2013-01-08 10:08:00,
2013-01-08 05:13:00,63.5,60.7,30.11,North,0,0.0,0.0,90,0.00,,,0.00,WUHU216HW,2013-01-08 10:13:00,
2013-01-08 05:18:00,63.5,60.7,30.11,North,0,0.0,0.0,90,0.00,,,0.00,WUHU216HW,2013-01-08 10:18:00,
2013-01-08 05:23:00,63.5,60.7,30.12,North,0,0.0,0.0,90,0.00,,,0.00,WUHU216HW,2013-01-08 10:23:00,
2013-01-08 05:28:00,63.5,60.7,30.12,North,0,0.0,0.0,90,0.00,,,0.00,WUHU216HW,2013-01-08 10:28:00,
2013-01-08 05:33:00,63.7,60.8,30.12,North,0,0.0,0.0,90,0.00,,,0.00,WUHU216HW,2013-01-08 10:33:00,
2013-01-08 05:38:00,63.7,60.8,30.12,North,0,0.0,0.0,90,0.00,,,0.00,WUHU216HW,2013-01-08 10:38:00,
2013-01-08 05:43:00,63.7,60.8,30.12,North,0,0.0,0.0,90,0.00,,,0.00,WUHU216HW,2013-01-08 10:43:00,
2013-01-08 05:48:00,63.7,60.8,30.12,North,0,0.0,0.0,90,0.00,,,0.00,WUHU216HW,2013-01-08 10:48:00,
2013-01-08 05:53:00,63.7,60.8,30.12,North,0,0.0,0.0,90,0.00,,,0.00,WUHU216HW,2013-01-08 10:53:00,
2013-01-08 05:58:00,63.7,60.8,30.12,North,0,0.0,0.0,90,0.00,,,0.00,WUHU216HW,2013-01-08 10:58:00,
2013-01-08 06:03:00,63.7,61.1,30.12,North,0,0.0,0.0,91,0.00,,,0.00,WUHU216HW,2013-01-08 11:03:00,
2013-01-08 06:08:00,63.7,61.1,30.13,North,0,0.0,0.0,91,0.00,,,0.00,WUHU216HW,2013-01-08 11:08:00,
2013-01-08 06:13:00,63.7,61.1,30.13,North,0,0.0,0.0,91,0.00,,,0.00,WUHU216HW,2013-01-08 11:13:00,
2013-01-08 06:18:00,63.7,61.1,30.13,North,0,0.0,0.0,91,0.00,,,0.00,WUHU216HW,2013-01-08 11:18:00,
2013-01-08 06:23:00,63.7,61.1,30.13,North,0,0.0,0.0,91,0.00,,,0.00,WUHU216HW,2013-01-08 11:23:00,
2013-01-08 06:28:00,63.9,61.3,30.13,North,0,0.0,0.0,91,0.00,,,0.00,WUHU216HW,2013-01-08 11:28:00,
2013-01-08 06:33:00,63.9,61.3,30.13,North,0,0.0,0.0,91,0.00,,,0.00,WUHU216HW,2013-01-08 11:33:00,
2013-01-08 06:38:00,63.9,61.3,30.13,North,0,0.0,0.0,91,0.00,,,0.00,WUHU216HW,2013-01-08 11:38:00,
2013-01-08 06:43:00,63.9,61.3,30.14,North,0,0.0,0.0,91,0.00,,,0.00,WUHU216HW,2013-01-08 11:43:00,
2013-01-08 06:48:00,63.9,61.3,30.14,North,0,0.0,0.0,91,0.00,,,0.00,WUHU216HW,2013-01-08 11:48:00,
2013-01-08 06:53:00,63.9,61.3,30.14,North,0,0.0,0.0,91,0.00,,,0.00,WUHU216HW,2013-01-08 11:53:00,
2013-01-08 06:58:00,63.9,61.3,30.14,North,0,0.0,0.0,91,0.00,,,0.00,WUHU216HW,2013-01-08 11:58:00,
2013-01-08 07:03:00,64.1,61.5,30.14,North,0,0.0,0.0,91,0.00,,,0.00,WUHU216HW,2013-01-08 12:03:00,
2013-01-08 07:08:00,63.9,61.3,30.14,North,0,0.0,0.0,91,0.00,,,0.00,WUHU216HW,2013-01-08 12:08:00,
2013-01-08 07:13:00,63.9,61.3,30.14,North,0,0.0,0.0,91,0.00,,,0.00,WUHU216HW,2013-01-08 12:13:00,
2013-01-08 07:18:00,63.9,61.3,30.15,North,0,0.0,0.0,91,0.00,,,0.00,WUHU216HW,2013-01-08 12:18:00,
2013-01-08 07:23:00,63.9,61.3,30.15,North,0,0.0,0.0,91,0.00,,,0.00,WUHU216HW,2013-01-08 12:23:00,
2013-01-08 07:28:00,63.9,61.3,30.15,North,0,0.0,0.0,91,0.00,,,0.00,WUHU216HW,2013-01-08 12:28:00,
2013-01-08 07:33:00,63.9,61.3,30.16,North,0,0.0,0.0,91,0.00,,,0.00,WUHU216HW,2013-01-08 12:33:00,
2013-01-08 07:38:00,63.9,61.3,30.16,North,0,0.0,0.0,91,0.00,,,0.00,WUHU216HW,2013-01-08 12:38:00,
2013-01-08 07:43:00,63.9,61.3,30.16,North,0,0.0,0.0,91,0.00,,,0.00,WUHU216HW,2013-01-08 12:43:00,
2013-01-08 07:48:00,64.1,61.5,30.16,North,0,0.0,0.0,91,0.00,,,0.00,WUHU216HW,2013-01-08 12:48:00,
2013-01-08 07:53:00,64.1,61.5,30.16,North,0,0.0,0.0,91,0.00,,,0.00,WUHU216HW,2013-01-08 12:53:00,
2013-01-08 07:58:00,64.1,61.5,30.17,North,0,0.0,0.0,91,0.00,,,0.00,WUHU216HW,2013-01-08 12:58:00,
2013-01-08 08:03:00,64.1,61.5,30.17,North,0,0.0,0.0,91,0.00,,,0.00,WUHU216HW,2013-01-08 13:03:00,
2013-01-08 08:08:00,64.1,61.5,30.18,North,0,0.0,0.0,91,0.00,,,0.00,WUHU216HW,2013-01-08 13:08:00,
2013-01-08 08:13:00,64.1,61.5,30.18,North,0,0.0,0.0,91,0.00,,,0.00,WUHU216HW,2013-01-08 13:13:00,
2013-01-08 08:18:00,64.1,61.5,30.18,North,0,0.0,0.0,91,0.00,,,0.00,WUHU216HW,2013-01-08 13:18:00,
2013-01-08 08:23:00,64.1,61.5,30.18,North,0,0.0,0.0,91,0.00,,,0.00,WUHU216HW,2013-01-08 13:23:00,
2013-01-08 08:28:00,64.3,61.9,30.18,North,0,0.0,0.0,92,0.00,,,0.00,WUHU216HW,2013-01-08 13:28:00,
2013-01-08 08:33:00,64.4,62.1,30.19,North,0,0.0,0.0,92,0.00,,,0.00,WUHU216HW,2013-01-08 13:33:00,
2013-01-08 08:38:00,64.8,62.5,30.19,North,0,0.0,0.0,92,0.00,,,0.00,WUHU216HW,2013-01-08 13:38:00,
2013-01-08 08:43:00,65.0,62.7,30.19,North,0,0.0,0.0,92,0.00,,,0.00,WUHU216HW,2013-01-08 13:43:00,
2013-01-08 08:48:00,65.2,62.8,30.19,North,0,0.0,0.0,92,0.00,,,0.00,WUHU216HW,2013-01-08 13:48:00,
2013-01-08 08:53:00,65.3,63.0,30.19,North,0,0.0,0.0,92,0.00,,,0.00,WUHU216HW,2013-01-08 13:53:00,
2013-01-08 08:58:00,65.5,63.1,30.19,North,0,0.0,0.0,92,0.00,,,0.00,WUHU216HW,2013-01-08 13:58:00,
2013-01-08 09:03:00,65.7,63.3,30.20,North,0,0.0,0.0,92,0.00,,,0.00,WUHU216HW,2013-01-08 14:03:00,
2013-01-08 09:08:00,65.9,63.5,30.20,North,0,0.0,0.0,92,0.00,,,0.00,WUHU216HW,2013-01-08 14:08:00,
2013-01-08 09:13:00,66.2,63.8,30.20,North,0,0.0,0.0,92,0.00,,,0.00,WUHU216HW,2013-01-08 14:13:00,
2013-01-08 09:18:00,66.2,64.1,30.20,North,0,0.0,0.0,93,0.00,,,0.00,WUHU216HW,2013-01-08 14:18:00,
2013-01-08 09:23:00,66.6,64.4,30.20,North,0,0.0,0.0,93,0.00,,,0.00,WUHU216HW,2013-01-08 14:23:00,
2013-01-08 09:28:00,66.8,64.6,30.21,North,0,0.0,0.0,93,0.00,,,0.00,WUHU216HW,2013-01-08 14:28:00,
2013-01-08 09:33:00,67.0,64.8,30.20,North,0,0.0,0.0,93,0.00,,,0.00,WUHU216HW,2013-01-08 14:33:00,
2013-01-08 09:38:00,67.1,65.0,30.21,North,0,0.0,0.0,93,0.00,,,0.00,WUHU216HW,2013-01-08 14:38:00,
2013-01-08 09:43:00,67.3,65.2,30.21,North,0,0.0,0.0,93,0.00,,,0.00,WUHU216HW,2013-01-08 14:43:00,
2013-01-08 09:48:00,67.7,65.5,30.21,North,0,0.0,0.0,93,0.00,,,0.00,WUHU216HW,2013-01-08 14:48:00,
2013-01-08 09:53:00,68.0,65.9,30.21,North,0,0.0,0.0,93,0.00,,,0.00,WUHU216HW,2013-01-08 14:53:00,
2013-01-08 09:58:00,68.2,66.1,30.21,North,0,0.0,0.0,93,0.00,,,0.00,WUHU216HW,2013-01-08 14:58:00,
2013-01-08 10:03:00,68.6,66.4,30.21,North,0,0.0,0.0,93,0.00,,,0.00,WUHU216HW,2013-01-08 15:03:00,
2013-01-08 10:08:00,68.8,66.6,30.21,North,0,0.0,0.0,93,0.00,,,0.00,WUHU216HW,2013-01-08 15:08:00,
2013-01-08 10:13:00,69.1,67.0,30.21,North,0,0.0,0.0,93,0.00,,,0.00,WUHU216HW,2013-01-08 15:13:00,
2013-01-08 10:18:00,69.5,67.3,30.20,North,0,0.0,0.0,93,0.00,,,0.00,WUHU216HW,2013-01-08 15:18:00,
2013-01-08 10:23:00,69.7,67.5,30.20,North,0,0.0,0.0,93,0.00,,,0.00,WUHU216HW,2013-01-08 15:23:00,
2013-01-08 10:28:00,69.8,67.7,30.20,North,0,0.0,0.0,93,0.00,,,0.00,WUHU216HW,2013-01-08 15:28:00,
2013-01-08 10:33:00,70.0,67.9,30.20,North,0,0.0,0.0,93,0.00,,,0.00,WUHU216HW,2013-01-08 15:33:00,
2013-01-08 10:38:00,70.2,67.8,30.20,North,0,0.0,0.0,92,0.00,,,0.00,WUHU216HW,2013-01-08 15:38:00,
2013-01-08 10:43:00,70.4,68.0,30.20,North,0,0.0,0.0,92,0.00,,,0.00,WUHU216HW,2013-01-08 15:43:00,
2013-01-08 10:48:00,70.6,68.1,30.20,North,0,0.0,0.0,92,0.00,,,0.00,WUHU216HW,2013-01-08 15:48:00,
2013-01-08 10:53:00,70.7,68.0,30.20,North,0,0.0,0.0,91,0.00,,,0.00,WUHU216HW,2013-01-08 15:53:00,
2013-01-08 10:58:00,70.9,68.1,30.20,North,0,0.0,0.0,91,0.00,,,0.00,WUHU216HW,2013-01-08 15:58:00,
2013-01-08 11:03:00,71.1,68.3,30.19,North,0,0.0,0.0,91,0.00,,,0.00,WUHU216HW,2013-01-08 16:03:00,
2013-01-08 11:08:00,71.5,68.7,30.19,North,0,0.0,0.0,91,0.00,,,0.00,WUHU216HW,2013-01-08 16:08:00,
2013-01-08 11:13:00,71.6,68.6,30.19,North,0,0.0,0.0,90,0.00,,,0.00,WUHU216HW,2013-01-08 16:13:00,
2013-01-08 11:18:00,71.8,68.8,30.19,North,0,0.0,0.0,90,0.00,,,0.00,WUHU216HW,2013-01-08 16:18:00,
2013-01-08 11:23:00,72.0,68.9,30.18,North,0,0.0,0.0,90,0.00,,,0.00,WUHU216HW,2013-01-08 16:23:00,
2013-01-08 11:28:00,72.5,69.1,30.18,North,0,0.0,0.0,89,0.00,,,0.00,WUHU216HW,2013-01-08 16:28:00,
2013-01-08 11:33:00,73.3,69.8,30.18,North,0,0.0,0.0,89,0.00,,,0.00,WUHU216HW,2013-01-08 16:33:00,
2013-01-08 11:38:00,75.1,71.3,30.18,North,0,0.0,0.0,88,0.00,,,0.00,WUHU216HW,2013-01-08 16:38:00,
2013-01-08 11:43:00,77.4,72.9,30.17,North,0,0.0,0.0,86,0.00,,,0.00,WUHU216HW,2013-01-08 16:43:00,
2013-01-08 11:48:00,79.2,73.6,30.17,North,0,0.0,0.0,83,0.00,,,0.00,WUHU216HW,2013-01-08 16:48:00,
2013-01-08 11:53:00,79.6,72.9,30.17,North,0,0.0,0.0,80,0.00,,,0.00,WUHU216HW,2013-01-08 16:53:00,
2013-01-08 11:58:00,79.4,72.7,30.17,North,0,0.0,0.0,80,0.00,,,0.00,WUHU216HW,2013-01-08 16:58:00,
2013-01-08 12:03:00,79.7,72.7,30.17,North,0,0.0,0.0,79,0.00,,,0.00,WUHU216HW,2013-01-08 17:03:00,
2013-01-08 12:08:00,79.6,71.7,30.16,North,0,0.0,0.0,77,0.00,,,0.00,WUHU216HW,2013-01-08 17:08:00,
2013-01-08 12:13:00,80.1,72.3,30.16,North,0,0.0,0.0,77,0.00,,,0.00,WUHU216HW,2013-01-08 17:13:00,
2013-01-08 12:18:00,81.7,73.5,30.16,North,0,0.0,0.0,76,0.00,,,0.00,WUHU216HW,2013-01-08 17:18:00,
2013-01-08 12:23:00,81.9,72.4,30.16,North,0,0.0,0.0,73,0.00,,,0.00,WUHU216HW,2013-01-08 17:23:00,
2013-01-08 12:28:00,83.2,74.0,30.16,North,0,0.0,0.0,74,0.00,,,0.00,WUHU216HW,2013-01-08 17:28:00,
2013-01-08 12:33:00,83.9,73.9,30.16,North,0,0.0,0.0,72,0.00,,,0.00,WUHU216HW,2013-01-08 17:33:00,
2013-01-08 12:38:00,83.9,73.1,30.16,North,0,0.0,0.0,70,0.00,,,0.00,WUHU216HW,2013-01-08 17:38:00,
2013-01-08 12:43:00,84.4,73.6,30.15,North,0,0.0,0.0,70,0.00,,,0.00,WUHU216HW,2013-01-08 17:43:00,
2013-01-08 12:48:00,85.3,73.2,30.15,North,0,0.0,0.0,67,0.00,,,0.00,WUHU216HW,2013-01-08 17:48:00,
2013-01-08 12:53:00,86.0,73.4,30.15,North,0,0.0,0.0,66,0.00,,,0.00,WUHU216HW,2013-01-08 17:53:00,
2013-01-08 12:58:00,86.8,73.1,30.15,North,0,0.0,0.0,64,0.00,,,0.00,WUHU216HW,2013-01-08 17:58:00,
2013-01-08 13:03:00,85.7,72.1,30.15,North,0,0.0,0.0,64,0.00,,,0.00,WUHU216HW,2013-01-08 18:03:00,
2013-01-08 13:08:00,84.2,71.2,30.14,North,0,0.0,0.0,65,0.00,,,0.00,WUHU216HW,2013-01-08 18:08:00,
2013-01-08 13:13:00,83.2,70.6,30.14,North,0,0.0,0.0,66,0.00,,,0.00,WUHU216HW,2013-01-08 18:13:00,
2013-01-08 13:18:00,82.1,69.5,30.14,North,0,0.0,0.0,66,0.00,,,0.00,WUHU216HW,2013-01-08 18:18:00,
2013-01-08 13:23:00,81.5,69.5,30.14,North,0,0.0,0.0,67,0.00,,,0.00,WUHU216HW,2013-01-08 18:23:00,
2013-01-08 13:28:00,81.0,69.0,30.13,North,0,0.0,0.0,67,0.00,,,0.00,WUHU216HW,2013-01-08 18:28:00,
2013-01-08 13:33:00,80.5,68.9,30.13,North,0,0.0,0.0,68,0.00,,,0.00,WUHU216HW,2013-01-08 18:33:00,
2013-01-08 13:38:00,80.1,68.6,30.13,North,0,0.0,0.0,68,0.00,,,0.00,WUHU216HW,2013-01-08 18:38:00,
2013-01-08 13:43:00,79.9,68.9,30.13,North,0,0.0,0.0,69,0.00,,,0.00,WUHU216HW,2013-01-08 18:43:00,
2013-01-08 13:48:00,79.7,68.7,30.13,North,0,0.0,0.0,69,0.00,,,0.00,WUHU216HW,2013-01-08 18:48:00,
2013-01-08 13:53:00,79.6,68.5,30.13,North,0,0.0,0.0,69,0.00,,,0.00,WUHU216HW,2013-01-08 18:53:00,
2013-01-08 13:58:00,79.6,68.9,30.12,North,0,0.0,0.0,70,0.00,,,0.00,WUHU216HW,2013-01-08 18:58:00,
2013-01-08 14:03:00,79.4,68.8,30.12,North,0,0.0,0.0,70,0.00,,,0.00,WUHU216HW,2013-01-08 19:03:00,
2013-01-08 14:08:00,79.2,68.6,30.12,North,0,0.0,0.0,70,0.00,,,0.00,WUHU216HW,2013-01-08 19:08:00,
2013-01-08 14:13:00,79.2,68.6,30.12,North,0,0.0,0.0,70,0.00,,,0.00,WUHU216HW,2013-01-08 19:13:00,
2013-01-08 14:18:00,79.2,68.6,30.12,North,0,0.0,0.0,70,0.00,,,0.00,WUHU216HW,2013-01-08 19:18:00,
2013-01-08 14:23:00,79.0,68.4,30.12,North,0,0.0,0.0,70,0.00,,,0.00,WUHU216HW,2013-01-08 19:23:00,
2013-01-08 14:28:00,79.0,68.4,30.12,North,0,0.0,0.0,70,0.00,,,0.00,WUHU216HW,2013-01-08 19:28:00,
2013-01-08 14:33:00,79.0,68.4,30.12,North,0,0.0,0.0,70,0.00,,,0.00,WUHU216HW,2013-01-08 19:33:00,
2013-01-08 14:38:00,79.0,68.0,30.12,North,0,0.0,0.0,69,0.00,,,0.00,WUHU216HW,2013-01-08 19:38:00,
2013-01-08 14:43:00,78.8,68.2,30.12,North,0,0.0,0.0,70,0.00,,,0.00,WUHU216HW,2013-01-08 19:43:00,
2013-01-08 14:48:00,78.8,68.2,30.12,North,0,0.0,0.0,70,0.00,,,0.00,WUHU216HW,2013-01-08 19:48:00,
2013-01-08 14:53:00,78.8,68.2,30.12,North,0,0.0,0.0,70,0.00,,,0.00,WUHU216HW,2013-01-08 19:53:00,
2013-01-08 14:58:00,78.7,68.0,30.12,North,0,0.0,0.0,70,0.00,,,0.00,WUHU216HW,2013-01-08 19:58:00,
2013-01-08 15:03:00,78.8,68.2,30.12,North,0,0.0,0.0,70,0.00,,,0.00,WUHU216HW,2013-01-08 20:03:00,
2013-01-08 15:08:00,78.8,68.2,30.12,North,0,0.0,0.0,70,0.00,,,0.00,WUHU216HW,2013-01-08 20:08:00,
2013-01-08 15:13:00,78.7,68.0,30.11,North,0,0.0,0.0,70,0.00,,,0.00,WUHU216HW,2013-01-08 20:13:00,
2013-01-08 15:18:00,78.8,68.2,30.11,North,0,0.0,0.0,70,0.00,,,0.00,WUHU216HW,2013-01-08 20:18:00,
2013-01-08 15:23:00,78.7,68.0,30.12,North,0,0.0,0.0,70,0.00,,,0.00,WUHU216HW,2013-01-08 20:23:00,
2013-01-08 15:28:00,78.7,68.0,30.12,North,0,0.0,0.0,70,0.00,,,0.00,WUHU216HW,2013-01-08 20:28:00,
2013-01-08 15:33:00,78.7,68.0,30.12,North,0,0.0,0.0,70,0.00,,,0.00,WUHU216HW,2013-01-08 20:33:00,
2013-01-08 15:38:00,78.5,67.9,30.11,North,0,0.0,0.0,70,0.00,,,0.00,WUHU216HW,2013-01-08 20:38:00,
2013-01-08 15:43:00,78.5,67.9,30.12,North,0,0.0,0.0,70,0.00,,,0.00,WUHU216HW,2013-01-08 20:43:00,
2013-01-08 15:48:00,78.5,67.9,30.12,North,0,0.0,0.0,70,0.00,,,0.00,WUHU216HW,2013-01-08 20:48:00,
2013-01-08 15:53:00,78.5,67.9,30.11,North,0,0.0,0.0,70,0.00,,,0.00,WUHU216HW,2013-01-08 20:53:00,
2013-01-08 15:58:00,78.5,67.9,30.12,North,0,0.0,0.0,70,0.00,,,0.00,WUHU216HW,2013-01-08 20:58:00,
2013-01-08 16:03:00,78.5,67.9,30.11,North,0,0.0,0.0,70,0.00,,,0.00,WUHU216HW,2013-01-08 21:03:00,
2013-01-08 16:08:00,78.5,67.9,30.11,North,0,0.0,0.0,70,0.00,,,0.00,WUHU216HW,2013-01-08 21:08:00,
2013-01-08 16:13:00,78.5,67.9,30.11,North,0,0.0,0.0,70,0.00,,,0.00,WUHU216HW,2013-01-08 21:13:00,
2013-01-08 16:18:00,78.5,67.9,30.11,North,0,0.0,0.0,70,0.00,,,0.00,WUHU216HW,2013-01-08 21:18:00,
2013-01-08 16:23:00,78.5,67.9,30.12,North,0,0.0,0.0,70,0.00,,,0.00,WUHU216HW,2013-01-08 21:23:00,
2013-01-08 16:28:00,78.5,67.9,30.11,North,0,0.0,0.0,70,0.00,,,0.00,WUHU216HW,2013-01-08 21:28:00,
2013-01-08 16:33:00,78.5,67.9,30.12,North,0,0.0,0.0,70,0.00,,,0.00,WUHU216HW,2013-01-08 21:33:00,
2013-01-08 16:38:00,78.3,68.1,30.12,North,0,0.0,0.0,71,0.00,,,0.00,WUHU216HW,2013-01-08 21:38:00,
2013-01-08 16:43:00,78.3,68.1,30.12,North,0,0.0,0.0,71,0.00,,,0.00,WUHU216HW,2013-01-08 21:43:00,
2013-01-08 16:48:00,78.1,68.0,30.12,North,0,0.0,0.0,71,0.00,,,0.00,WUHU216HW,2013-01-08 21:48:00,
2013-01-08 16:53:00,78.1,68.0,30.12,North,0,0.0,0.0,71,0.00,,,0.00,WUHU216HW,2013-01-08 21:53:00,
2013-01-08 16:58:00,77.9,67.8,30.12,North,0,0.0,0.0,71,0.00,,,0.00,WUHU216HW,2013-01-08 21:58:00,
2013-01-08 17:03:00,77.9,67.8,30.13,North,0,0.0,0.0,71,0.00,,,0.00,WUHU216HW,2013-01-08 22:03:00,
2013-01-08 17:09:00,77.8,68.1,30.13,North,0,0.0,0.0,72,0.00,,,0.00,WUHU216HW,2013-01-08 22:09:00,
2013-01-08 17:14:00,77.8,68.1,30.13,North,0,0.0,0.0,72,0.00,,,0.00,WUHU216HW,2013-01-08 22:14:00,
2013-01-08 17:18:00,77.6,67.9,30.13,North,0,0.0,0.0,72,0.00,,,0.00,WUHU216HW,2013-01-08 22:18:00,
2013-01-08 17:23:00,77.6,68.2,30.13,North,0,0.0,0.0,73,0.00,,,0.00,WUHU216HW,2013-01-08 22:23:00,
2013-01-08 17:28:00,77.4,68.0,30.13,North,0,0.0,0.0,73,0.00,,,0.00,WUHU216HW,2013-01-08 22:28:00,
2013-01-08 17:33:00,77.4,68.0,30.13,North,0,0.0,0.0,73,0.00,,,0.00,WUHU216HW,2013-01-08 22:33:00,
2013-01-08 17:38:00,77.2,67.9,30.13,North,0,0.0,0.0,73,0.00,,,0.00,WUHU216HW,2013-01-08 22:38:00,
2013-01-08 17:43:00,77.0,67.8,30.14,North,0,0.0,0.0,73,0.00,,,0.00,WUHU216HW,2013-01-08 22:43:00,
2013-01-08 17:48:00,77.0,68.1,30.14,North,0,0.0,0.0,74,0.00,,,0.00,WUHU216HW,2013-01-08 22:48:00,
2013-01-08 17:53:00,76.9,68.0,30.14,North,0,0.0,0.0,74,0.00,,,0.00,WUHU216HW,2013-01-08 22:53:00,
2013-01-08 17:58:00,76.7,67.8,30.14,North,0,0.0,0.0,74,0.00,,,0.00,WUHU216HW,2013-01-08 22:58:00,
2013-01-08 18:04:00,76.7,67.8,30.14,North,0,0.0,0.0,74,0.00,,,0.00,WUHU216HW,2013-01-08 23:04:00,
2013-01-08 18:09:00,76.5,68.0,30.14,North,0,0.0,0.0,75,0.00,,,0.00,WUHU216HW,2013-01-08 23:09:00,
2013-01-08 18:14:00,76.3,67.8,30.15,North,0,0.0,0.0,75,0.00,,,0.00,WUHU216HW,2013-01-08 23:14:00,
2013-01-08 18:19:00,76.3,67.8,30.15,North,0,0.0,0.0,75,0.00,,,0.00,WUHU216HW,2013-01-08 23:19:00,
2013-01-08 18:24:00,76.3,67.8,30.14,North,0,0.0,0.0,75,0.00,,,0.00,WUHU216HW,2013-01-08 23:24:00,
2013-01-08 18:29:00,76.1,67.7,30.15,North,0,0.0,0.0,75,0.00,,,0.00,WUHU216HW,2013-01-08 23:29:00,
2013-01-08 18:34:00,76.0,67.5,30.15,North,0,0.0,0.0,75,0.00,,,0.00,WUHU216HW,2013-01-08 23:34:00,
2013-01-08 18:39:00,76.0,67.5,30.15,North,0,0.0,0.0,75,0.00,,,0.00,WUHU216HW,2013-01-08 23:39:00,
2013-01-08 18:44:00,76.0,67.9,30.15,North,0,0.0,0.0,76,0.00,,,0.00,WUHU216HW,2013-01-08 23:44:00,
2013-01-08 18:49:00,75.8,67.7,30.15,North,0,0.0,0.0,76,0.00,,,0.00,WUHU216HW,2013-01-08 23:49:00,
2013-01-08 18:54:00,75.6,67.5,30.15,North,0,0.0,0.0,76,0.00,,,0.00,WUHU216HW,2013-01-08 23:54:00,
2013-01-08 18:59:00,75.6,67.5,30.15,North,0,0.0,0.0,76,0.00,,,0.00,WUHU216HW,2013-01-08 23:59:00,
2013-01-08 19:04:00,75.4,67.8,30.15,North,0,0.0,0.0,77,0.00,,,0.00,WUHU216HW,2013-01-09 00:04:00,
2013-01-08 19:09:00,75.2,67.6,30.14,North,0,0.0,0.0,77,0.00,,,0.00,WUHU216HW,2013-01-09 00:09:00,
2013-01-08 19:14:00,75.2,67.6,30.15,North,0,0.0,0.0,77,0.00,,,0.00,WUHU216HW,2013-01-09 00:14:00,
2013-01-08 19:19:00,75.1,67.8,30.15,North,0,0.0,0.0,78,0.00,,,0.00,WUHU216HW,2013-01-09 00:19:00,
2013-01-08 19:24:00,74.9,67.6,30.15,North,0,0.0,0.0,78,0.00,,,0.00,WUHU216HW,2013-01-09 00:24:00,
2013-01-08 19:29:00,74.9,67.6,30.15,North,0,0.0,0.0,78,0.00,,,0.00,WUHU216HW,2013-01-09 00:29:00,
2013-01-08 19:34:00,74.7,67.4,30.15,North,0,0.0,0.0,78,0.00,,,0.00,WUHU216HW,2013-01-09 00:34:00,
2013-01-08 19:39:00,74.5,67.2,30.15,North,0,0.0,0.0,78,0.00,,,0.00,WUHU216HW,2013-01-09 00:39:00,
2013-01-08 19:44:00,74.5,67.2,30.15,North,0,0.0,0.0,78,0.00,,,0.00,WUHU216HW,2013-01-09 00:44:00,
2013-01-08 19:49:00,74.5,67.7,30.15,North,0,0.0,0.0,79,0.00,,,0.00,WUHU216HW,2013-01-09 00:49:00,
2013-01-08 19:54:00,74.3,67.5,30.15,North,0,0.0,0.0,79,0.00,,,0.00,WUHU216HW,2013-01-09 00:54:00,
2013-01-08 19:59:00,74.2,67.3,30.15,North,0,0.0,0.0,79,0.00,,,0.00,WUHU216HW,2013-01-09 00:59:00,
2013-01-08 20:04:00,74.2,67.3,30.15,North,0,0.0,0.0,79,0.00,,,0.00,WUHU216HW,2013-01-09 01:04:00,
2013-01-08 20:09:00,74.0,67.2,30.15,North,0,0.0,0.0,79,0.00,,,0.00,WUHU216HW,2013-01-09 01:09:00,
2013-01-08 20:14:00,73.8,67.3,30.15,North,0,0.0,0.0,80,0.00,,,0.00,WUHU216HW,2013-01-09 01:14:00,
2013-01-08 20:19:00,73.6,67.1,30.16,North,0,0.0,0.0,80,0.00,,,0.00,WUHU216HW,2013-01-09 01:19:00,
2013-01-08 20:24:00,73.6,67.1,30.16,North,0,0.0,0.0,80,0.00,,,0.00,WUHU216HW,2013-01-09 01:24:00,
2013-01-08 20:29:00,73.4,67.0,30.16,North,0,0.0,0.0,80,0.00,,,0.00,WUHU216HW,2013-01-09 01:29:00,
2013-01-08 20:34:00,73.3,67.2,30.16,North,0,0.0,0.0,81,0.00,,,0.00,WUHU216HW,2013-01-09 01:34:00,
2013-01-08 20:39:00,73.3,67.2,30.16,North,0,0.0,0.0,81,0.00,,,0.00,WUHU216HW,2013-01-09 01:39:00,
2013-01-08 20:44:00,73.1,67.0,30.16,North,0,0.0,0.0,81,0.00,,,0.00,WUHU216HW,2013-01-09 01:44:00,
2013-01-08 20:49:00,72.9,66.8,30.16,North,0,0.0,0.0,81,0.00,,,0.00,WUHU216HW,2013-01-09 01:49:00,
2013-01-08 20:54:00,72.7,66.6,30.16,North,0,0.0,0.0,81,0.00,,,0.00,WUHU216HW,2013-01-09 01:54:00,
2013-01-08 20:59:00,72.7,67.0,30.16,North,0,0.0,0.0,82,0.00,,,0.00,WUHU216HW,2013-01-09 01:59:00,
2013-01-08 21:04:00,72.5,66.4,30.16,North,0,0.0,0.0,81,0.00,,,0.00,WUHU216HW,2013-01-09 02:04:00,
2013-01-08 21:09:00,72.5,66.4,30.16,North,0,0.0,0.0,81,0.00,,,0.00,WUHU216HW,2013-01-09 02:09:00,
2013-01-08 21:14:00,72.4,66.6,30.16,North,0,0.0,0.0,82,0.00,,,0.00,WUHU216HW,2013-01-09 02:14:00,
2013-01-08 21:19:00,72.4,66.6,30.16,North,0,0.0,0.0,82,0.00,,,0.00,WUHU216HW,2013-01-09 02:19:00,
2013-01-08 21:24:00,72.4,66.6,30.16,North,0,0.0,0.0,82,0.00,,,0.00,WUHU216HW,2013-01-09 02:24:00,
2013-01-08 21:29:00,72.2,66.4,30.16,North,0,0.0,0.0,82,0.00,,,0.00,WUHU216HW,2013-01-09 02:29:00,
2013-01-08 21:34:00,72.0,66.3,30.16,North,0,0.0,0.0,82,0.00,,,0.00,WUHU216HW,2013-01-09 02:34:00,
2013-01-08 21:39:00,72.0,66.3,30.16,North,0,0.0,0.0,82,0.00,,,0.00,WUHU216HW,2013-01-09 02:39:00,
2013-01-08 21:44:00,72.0,66.3,30.17,North,0,0.0,0.0,82,0.00,,,0.00,WUHU216HW,2013-01-09 02:44:00,
2013-01-08 21:49:00,71.8,66.1,30.17,North,0,0.0,0.0,82,0.00,,,0.00,WUHU216HW,2013-01-09 02:49:00,
2013-01-08 21:54:00,71.6,66.2,30.17,North,0,0.0,0.0,83,0.00,,,0.00,WUHU216HW,2013-01-09 02:54:00,
2013-01-08 21:59:00,71.6,66.2,30.17,North,0,0.0,0.0,83,0.00,,,0.00,WUHU216HW,2013-01-09 02:59:00,
2013-01-08 22:04:00,71.5,66.0,30.17,North,0,0.0,0.0,83,0.00,,,0.00,WUHU216HW,2013-01-09 03:04:00,
2013-01-08 22:09:00,71.3,65.8,30.17,North,0,0.0,0.0,83,0.00,,,0.00,WUHU216HW,2013-01-09 03:09:00,
2013-01-08 22:14:00,71.3,65.8,30.17,North,0,0.0,0.0,83,0.00,,,0.00,WUHU216HW,2013-01-09 03:14:00,
2013-01-08 22:19:00,71.3,65.8,30.18,North,0,0.0,0.0,83,0.00,,,0.00,WUHU216HW,2013-01-09 03:19:00,
2013-01-08 22:24:00,71.1,65.6,30.18,North,0,0.0,0.0,83,0.00,,,0.00,WUHU216HW,2013-01-09 03:24:00,
2013-01-08 22:29:00,71.1,66.0,30.18,North,0,0.0,0.0,84,0.00,,,0.00,WUHU216HW,2013-01-09 03:29:00,
2013-01-08 22:34:00,70.9,65.8,30.18,North,0,0.0,0.0,84,0.00,,,0.00,WUHU216HW,2013-01-09 03:34:00,
2013-01-08 22:39:00,70.9,65.8,30.18,North,0,0.0,0.0,84,0.00,,,0.00,WUHU216HW,2013-01-09 03:39:00,
2013-01-08 22:44:00,70.9,65.8,30.18,North,0,0.0,0.0,84,0.00,,,0.00,WUHU216HW,2013-01-09 03:44:00,
2013-01-08 22:49:00,70.9,65.8,30.18,North,0,0.0,0.0,84,0.00,,,0.00,WUHU216HW,2013-01-09 03:49:00,
2013-01-08 22:54:00,70.9,66.2,30.18,North,0,0.0,0.0,85,0.00,,,0.00,WUHU216HW,2013-01-09 03:54:00,
2013-01-08 22:59:00,70.9,66.2,30.18,North,0,0.0,0.0,85,0.00,,,0.00,WUHU216HW,2013-01-09 03:59:00,
2013-01-08 23:04:00,70.9,66.2,30.18,North,0,0.0,0.0,85,0.00,,,0.00,WUHU216HW,2013-01-09 04:04:00,
2013-01-08 23:09:00,70.9,66.2,30.18,North,0,0.0,0.0,85,0.00,,,0.00,WUHU216HW,2013-01-09 04:09:00,
2013-01-08 23:14:00,70.9,66.5,30.18,North,0,0.0,0.0,86,0.00,,,0.00,WUHU216HW,2013-01-09 04:14:00,
2013-01-08 23:19:00,70.9,66.5,30.18,North,0,0.0,0.0,86,0.00,,,0.00,WUHU216HW,2013-01-09 04:19:00,
2013-01-08 23:24:00,70.9,66.5,30.18,North,0,0.0,0.0,86,0.00,,,0.00,WUHU216HW,2013-01-09 04:24:00,
2013-01-08 23:29:00,70.9,66.5,30.18,North,0,0.0,0.0,86,0.00,,,0.00,WUHU216HW,2013-01-09 04:29:00,
2013-01-08 23:34:00,70.9,66.5,30.18,North,0,0.0,0.0,86,0.00,,,0.00,WUHU216HW,2013-01-09 04:34:00,
2013-01-08 23:39:00,70.9,66.5,30.18,North,0,0.0,0.0,86,0.00,,,0.00,WUHU216HW,2013-01-09 04:39:00,
2013-01-08 23:44:00,70.9,66.5,30.18,North,0,0.0,0.0,86,0.00,,,0.00,WUHU216HW,2013-01-09 04:44:00,
2013-01-08 23:49:00,70.9,66.5,30.18,North,0,0.0,0.0,86,0.00,,,0.00,WUHU216HW,2013-01-09 04:49:00,
2013-01-08 23:54:00,70.7,66.3,30.18,North,0,0.0,0.0,86,0.00,,,0.00,WUHU216HW,2013-01-09 04:54:00,
2013-01-08 23:59:00,70.7,66.3,30.18,North,0,0.0,0.0,86,0.00,,,0.00,WUHU216HW,2013-01-09 04:59:00,